00 100 18 Happy Fell — W — position and weather

sailwx.info

Track history (hours):
 
Tides and Currents Weather Stations Pressure Air Temp Water Temp Dewpoint Dewpoint Depression Visibility Wind Speed Wind Dir Waves Ship Positions

00 100 18 Happy Fell

Last reported at 2017-Oct-13 18:00 UTC. Time now 2017-Oct-17 20:57 UTC.
Position N 26°04' W 080°08'.

Length 24 m; draft 1.1 m.

Type: Cargo ship. MMSI: 243071215.

Date/timePositionNaut miles runAvg speedWind from/ knotsBaromVisibWave heightAir tempDewpointWater temp
2017-Oct-13 18:00N 26°04' W 080°08'0 0.0
2017-Oct-13 17:30N 26°04' W 080°08'  
2017-Oct-09 13:29N 31°10' E 121°09'1 3.1
2017-Oct-09 13:00N 31°12' E 121°09'2 3.4
2017-Oct-09 12:26N 31°14' E 121°09'2 3.1
2017-Oct-09 11:54N 31°15' E 121°09'1 2.4
2017-Oct-09 11:28N 31°16' E 121°09'3 0.1
2017-Oct-07 08:17N 31°16' E 121°12'3 5.0
2017-Oct-07 07:46N 31°17' E 121°09'1 1.2
2017-Oct-07 07:12N 31°16' E 121°09'1 5.3
2017-Oct-07 06:59N 31°15' E 121°09'3 5.5
2017-Oct-07 06:29N 31°12' E 121°09'3 5.3
2017-Oct-07 05:59N 31°10' E 121°09'5 5.2
2017-Oct-07 04:58N 31°04' E 121°10'  
Track history (hours):
 
Tides and Currents Weather Stations Pressure Air Temp Water Temp Dewpoint Dewpoint Depression Visibility Wind Speed Wind Dir Waves Ship Positions

00 100 18 Happy Fell

Last reported at 2017-Oct-13 18:00 UTC. Time now 2017-Oct-17 20:57 UTC.
Position N 26°04' W 080°08'.

Length 24 m; draft 1.1 m.

Type: Cargo ship. MMSI: 243071215.

Date/timePositionNaut miles runAvg speedWind from/ knotsBaromVisibWave heightAir tempDewpointWater temp
2017-Oct-13 18:00N 26°04' W 080°08'0 0.0
2017-Oct-13 17:30N 26°04' W 080°08'  
2017-Oct-09 13:29N 31°10' E 121°09'1 3.1
2017-Oct-09 13:00N 31°12' E 121°09'2 3.4
2017-Oct-09 12:26N 31°14' E 121°09'2 3.1
2017-Oct-09 11:54N 31°15' E 121°09'1 2.4
2017-Oct-09 11:28N 31°16' E 121°09'3 0.1
2017-Oct-07 08:17N 31°16' E 121°12'3 5.0
2017-Oct-07 07:46N 31°17' E 121°09'1 1.2
2017-Oct-07 07:12N 31°16' E 121°09'1 5.3
2017-Oct-07 06:59N 31°15' E 121°09'3 5.5
2017-Oct-07 06:29N 31°12' E 121°09'3 5.3
2017-Oct-07 05:59N 31°10' E 121°09'5 5.2
2017-Oct-07 04:58N 31°04' E 121°10'  

Dump ship's entire track history